Time;durP1;ratioP1;P1;durP2;ratioP2;P2;SDS_P1;SDS_P2;PMS_P1;PMS_P2;Temp;Humidity;BMP_temperature;BMP_pressure;BME280_temperature;BME280_humidity;BME280_pressure;Samples;Min_cycle;Max_cycle;Signal;HPM_P1;HPM_P2
2022/08/09 00:01:42;;;;;;;2.67;1.40;;;;;;;23.73;43.89;98880.22;6127203;23;20152;-91
2022/08/09 00:04:07;;;;;;;3.47;1.27;;;;;;;23.69;44.26;98892.25;6101525;23;20156;-92
2022/08/09 00:06:36;;;;;;;4.60;1.30;;;;;;;23.57;44.32;98877.56;6101405;23;20184;-92
2022/08/09 00:09:02;;;;;;;3.63;1.17;;;;;;;23.53;44.47;98886.09;6101513;23;20216;-91
2022/08/09 00:11:28;;;;;;;5.13;1.27;;;;;;;23.51;45.30;98888.06;6101969;23;20155;-91
2022/08/09 00:13:55;;;;;;;2.53;1.17;;;;;;;23.40;45.47;98886.56;6101766;23;20568;-90
2022/08/09 00:16:29;;;;;;;3.90;1.57;;;;;;;23.40;45.42;98881.22;6126008;23;20235;-92
2022/08/09 00:19:00;;;;;;;5.93;1.83;;;;;;;23.31;45.75;98882.22;6101448;23;20155;-92
2022/08/09 00:21:34;;;;;;;3.33;1.13;;;;;;;23.32;45.92;98885.72;6101545;23;20162;-92
2022/08/09 00:24:00;;;;;;;4.80;1.50;;;;;;;23.26;45.88;98873.84;6128098;23;20159;-92
2022/08/09 00:26:37;;;;;;;3.13;1.17;;;;;;;23.37;45.53;98875.41;6101246;23;20220;-91
2022/08/09 00:29:03;;;;;;;2.30;1.10;;;;;;;23.25;46.13;98874.84;6102128;23;20147;-92
2022/08/09 00:31:30;;;;;;;2.43;1.70;;;;;;;23.21;46.53;98876.19;6101345;23;20226;-91
2022/08/09 00:33:56;;;;;;;2.40;1.40;;;;;;;23.30;45.98;98879.69;6126900;23;20148;-91
2022/08/09 00:36:23;;;;;;;4.00;1.47;;;;;;;23.23;46.46;98880.38;6101274;23;20155;-91
2022/08/09 00:38:57;;;;;;;5.60;1.77;;;;;;;23.31;46.99;98882.22;6102403;23;20183;-92
2022/08/09 00:41:25;;;;;;;4.83;1.47;;;;;;;23.31;47.00;98876.88;6101837;23;20148;-93
2022/08/09 00:43:51;;;;;;;5.90;1.13;;;;;;;23.27;46.70;98871.00;6127145;23;20158;-91
2022/08/09 00:46:18;;;;;;;1.60;0.90;;;;;;;23.34;46.51;98870.34;6101555;23;20195;-91
2022/08/09 00:48:44;;;;;;;4.03;0.87;;;;;;;23.46;46.34;98867.19;6101544;23;20158;-91
2022/08/09 00:51:15;;;;;;;3.00;1.20;;;;;;;23.59;45.99;98867.50;6100889;23;20565;-91
2022/08/09 00:53:41;;;;;;;2.70;1.23;;;;;;;23.75;45.38;98864.81;6101096;23;20155;-91
2022/08/09 00:56:07;;;;;;;6.37;1.97;;;;;;;23.82;44.69;98870.28;6101373;23;20175;-91
2022/08/09 00:58:36;;;;;;;3.07;1.40;;;;;;;23.95;44.39;98859.88;6125459;23;20168;-90
2022/08/09 01:01:10;;;;;;;3.73;1.20;;;;;;;23.91;44.24;98857.72;6100960;23;20164;-92
2022/08/09 01:03:54;;;;;;;2.23;1.00;;;;;;;24.14;43.79;98850.66;6101002;23;20162;-91
2022/08/09 01:06:47;;;;;;;4.27;1.23;;;;;;;24.13;43.51;98865.06;6127066;23;20167;-91
2022/08/09 01:09:54;;;;;;;3.63;1.33;;;;;;;24.11;43.78;98857.19;6101429;23;20235;-91
2022/08/09 01:13:01;;;;;;;3.10;1.30;;;;;;;24.18;43.38;98854.69;6126977;23;20174;-91
2022/08/09 01:15:33;;;;;;;3.83;1.17;;;;;;;24.25;43.00;98856.47;6014284;23;20498;-91
2022/08/09 01:18:26;;;;;;;2.67;1.27;;;;;;;24.43;42.91;98851.72;6094549;23;20321;-91
2022/08/09 01:21:04;;;;;;;2.17;0.80;;;;;;;24.44;42.43;98855.22;6127099;23;20152;-90
2022/08/09 01:23:58;;;;;;;2.13;1.10;;;;;;;24.29;43.14;98851.63;6126727;23;20190;-92
2022/08/09 01:27:00;;;;;;;3.37;1.20;;;;;;;24.37;42.93;98848.91;6092089;23;20630;-91
2022/08/09 01:29:51;;;;;;;2.57;1.20;;;;;;;24.44;42.68;98850.72;6101100;23;20159;-92
2022/08/09 01:32:20;;;;;;;3.40;1.60;;;;;;;24.56;42.44;98848.47;6125168;23;20176;-92
2022/08/09 01:34:54;;;;;;;5.03;1.53;;;;;;;24.54;42.49;98847.81;6101115;23;20164;-92
2022/08/09 01:37:23;;;;;;;2.83;1.30;;;;;;;24.65;42.43;98850.09;6127127;23;20143;-91
2022/08/09 01:39:53;;;;;;;3.07;1.57;;;;;;;24.70;42.42;98846.88;6126922;23;20158;-91
2022/08/09 01:42:21;;;;;;;4.40;1.23;;;;;;;24.73;42.22;98850.03;6100730;23;20651;-92
2022/08/09 01:44:50;;;;;;;5.40;1.23;;;;;;;24.83;41.92;98839.13;6126140;23;20195;-91
2022/08/09 01:47:20;;;;;;;2.47;0.93;;;;;;;24.83;42.00;98831.06;6126216;23;20188;-90
2022/08/09 01:49:54;;;;;;;2.33;1.23;;;;;;;24.75;42.12;98831.94;6126958;23;20220;-91
2022/08/09 01:52:22;;;;;;;2.40;1.23;;;;;;;24.77;42.06;98832.59;6125612;23;20144;-90
2022/08/09 01:54:52;;;;;;;3.20;1.10;;;;;;;24.96;41.56;98829.47;6126288;23;20287;-91
2022/08/09 01:57:27;;;;;;;2.60;1.30;;;;;;;24.86;41.64;98828.88;6127005;23;20140;-91
2022/08/09 01:59:57;;;;;;;3.00;1.23;;;;;;;25.00;41.54;98828.09;6125100;23;20587;-91
2022/08/09 02:02:35;;;;;;;4.20;1.30;;;;;;;24.98;41.56;98827.44;6126916;23;20179;-92
2022/08/09 02:05:17;;;;;;;3.07;1.40;;;;;;;24.98;41.27;98827.44;6128231;23;20136;-93
2022/08/09 02:07:54;;;;;;;3.37;1.27;;;;;;;25.02;41.37;98827.91;6126834;23;20175;-91
2022/08/09 02:10:30;;;;;;;5.17;1.53;;;;;;;25.08;41.45;98829.88;6127233;23;20202;-90
2022/08/09 02:13:04;;;;;;;4.47;1.30;;;;;;;25.13;41.58;98819.44;6103124;23;20517;-90
2022/08/09 02:15:37;;;;;;;3.30;1.07;;;;;;;25.16;41.54;98812.91;6128338;23;20161;-91
2022/08/09 02:18:06;;;;;;;3.53;1.50;;;;;;;25.17;41.25;98807.34;6102271;23;20152;-90
2022/08/09 02:20:38;;;;;;;2.83;1.67;;;;;;;25.14;41.44;98804.16;6128453;23;20144;-91
2022/08/09 02:23:11;;;;;;;11.33;1.60;;;;;;;25.14;40.97;98809.53;6128328;23;20136;-92
2022/08/09 02:25:41;;;;;;;2.37;1.17;;;;;;;25.05;41.12;98812.28;6103918;23;20454;-90
2022/08/09 02:28:40;;;;;;;2.03;1.17;;;;;;;25.14;40.57;98817.59;6127944;23;20239;-92
2022/08/09 02:31:27;;;;;;;2.00;1.00;;;;;;;25.03;40.88;98819.69;6122168;23;20183;-92
2022/08/09 02:33:59;;;;;;;4.63;1.27;;;;;;;24.97;40.63;98820.38;6128964;23;20579;-91
2022/08/09 02:36:46;;;;;;;4.10;1.37;;;;;;;25.05;40.20;98817.66;6128101;23;20132;-92
2022/08/09 02:39:18;;;;;;;3.67;1.30;;;;;;;24.99;40.35;98820.22;6127936;23;20152;-91
2022/08/09 02:41:55;;;;;;;2.53;1.00;;;;;;;25.13;40.05;98823.97;6128100;23;20623;-91
2022/08/09 02:44:27;;;;;;;1.77;0.83;;;;;;;25.00;39.63;98821.88;6101937;23;20148;-91
2022/08/09 02:47:01;;;;;;;3.23;1.20;;;;;;;24.90;39.93;98827.50;6128369;23;20183;-91
2022/08/09 02:49:31;;;;;;;3.47;1.10;;;;;;;25.04;40.08;98826.72;6102227;23;20234;-91
2022/08/09 02:52:00;;;;;;;2.33;0.90;;;;;;;24.91;40.21;98826.50;6128869;23;20136;-90
2022/08/09 02:54:32;;;;;;;6.23;1.27;;;;;;;24.97;40.33;98825.75;6102091;23;20222;-90
2022/08/09 02:57:01;;;;;;;3.77;1.87;;;;;;;25.17;39.67;98831.47;6127663;23;20146;-91
2022/08/09 02:59:29;;;;;;;2.43;1.40;;;;;;;25.05;39.15;98827.56;6128030;23;20179;-91
2022/08/09 03:01:58;;;;;;;2.47;1.37;;;;;;;24.98;39.28;98829.28;6128641;23;20159;-90
2022/08/09 03:04:26;;;;;;;3.10;1.40;;;;;;;24.84;39.26;98830.88;6128192;23;20152;-94
2022/08/09 03:07:03;;;;;;;2.87;1.30;;;;;;;24.69;40.34;98827.28;6127471;23;20184;-93
2022/08/09 03:09:30;;;;;;;4.40;1.63;;;;;;;24.78;41.14;98836.09;6102055;23;20204;-90
2022/08/09 03:11:58;;;;;;;3.43;1.33;;;;;;;24.81;41.24;98827.75;6102211;23;20160;-90
2022/08/09 03:14:25;;;;;;;2.63;1.30;;;;;;;24.67;41.15;98840.03;6127268;23;20162;-91
2022/08/09 03:16:53;;;;;;;3.97;1.53;;;;;;;24.66;41.24;98832.16;6101920;23;20156;-90
2022/08/09 03:19:19;;;;;;;5.73;1.60;;;;;;;24.69;41.25;98835.31;6127692;23;20148;-92
2022/08/09 03:21:49;;;;;;;7.87;1.70;;;;;;;24.67;40.92;98834.66;6127172;23;20599;-92
2022/08/09 03:24:17;;;;;;;3.50;1.20;;;;;;;24.79;40.69;98838.63;6127667;23;20163;-90
2022/08/09 03:26:46;;;;;;;2.37;1.07;;;;;;;24.86;40.71;98836.94;6127132;23;20189;-90
2022/08/09 03:29:14;;;;;;;2.37;1.40;;;;;;;24.81;40.95;98835.78;6127321;23;20156;-90
2022/08/09 03:31:44;;;;;;;4.13;1.67;;;;;;;24.88;40.97;98839.41;6127934;23;20631;-89
2022/08/09 03:34:12;;;;;;;2.10;1.27;;;;;;;24.96;40.90;98844.72;6102950;23;20172;-91
2022/08/09 03:36:38;;;;;;;3.07;1.17;;;;;;;25.07;40.34;98840.78;6101599;23;20560;-90
2022/08/09 03:39:05;;;;;;;12.50;1.57;;;;;;;25.03;40.77;98846.50;6101446;23;20152;-90
2022/08/09 03:41:33;;;;;;;3.40;1.73;;;;;;;25.17;40.59;98836.84;6127232;23;20163;-92
2022/08/09 03:43:59;;;;;;;2.87;1.30;;;;;;;25.09;40.47;98844.97;6100930;23;20159;-91
2022/08/09 03:46:24;;;;;;;2.47;1.27;;;;;;;24.93;40.44;98845.06;6126173;23;20196;-90
2022/08/09 03:48:56;;;;;;;4.53;2.10;;;;;;;25.08;40.08;98847.84;6101583;23;20162;-90
2022/08/09 03:51:26;;;;;;;3.00;1.73;;;;;;;25.18;39.89;98845.75;6127398;23;20144;-91
2022/08/09 03:53:52;;;;;;;3.13;1.77;;;;;;;25.18;39.39;98843.91;6101573;23;20176;-91
2022/08/09 03:56:22;;;;;;;2.77;1.27;;;;;;;24.96;39.64;98842.88;6127135;23;20147;-91
2022/08/09 03:58:48;;;;;;;2.80;1.20;;;;;;;24.98;39.42;98842.69;6101284;23;20562;-89
2022/08/09 04:01:15;;;;;;;3.00;1.07;;;;;;;25.08;39.32;98853.19;6101545;23;20159;-91
2022/08/09 04:03:48;;;;;;;2.50;1.20;;;;;;;24.96;39.06;98861.66;6127070;23;20152;-93
2022/08/09 04:06:14;;;;;;;2.73;1.43;;;;;;;25.08;38.97;98861.25;6101232;23;20547;-90
2022/08/09 04:08:41;;;;;;;2.33;1.10;;;;;;;25.12;39.00;98859.84;6127017;23;20159;-91
2022/08/09 04:11:07;;;;;;;6.27;1.40;;;;;;;25.11;38.52;98864.38;6101570;23;20152;-91
2022/08/09 04:13:33;;;;;;;6.80;1.40;;;;;;;25.07;38.97;98867.59;6125628;23;20516;-90
2022/08/09 04:16:00;;;;;;;2.20;1.00;;;;;;;25.04;38.36;98866.97;6101322;23;20302;-90
2022/08/09 04:18:26;;;;;;;3.57;1.27;;;;;;;24.88;39.14;98866.22;6101272;23;20156;-90
2022/08/09 04:20:53;;;;;;;2.17;1.27;;;;;;;24.80;39.60;98861.75;6126810;23;20155;-91
2022/08/09 04:23:21;;;;;;;3.00;1.20;;;;;;;24.86;40.42;98855.69;6126922;23;20163;-90
2022/08/09 04:25:47;;;;;;;4.50;1.43;;;;;;;24.79;40.79;98854.72;6127061;23;20147;-91
2022/08/09 04:28:14;;;;;;;5.07;1.53;;;;;;;24.89;41.16;98854.50;6102004;23;20614;-90
2022/08/09 04:30:39;;;;;;;3.57;1.87;;;;;;;24.87;41.36;98856.50;6126768;23;20148;-91
2022/08/09 04:33:05;;;;;;;4.83;1.80;;;;;;;25.03;41.67;98843.81;6102072;23;20159;-91
2022/08/09 04:35:39;;;;;;;3.70;2.00;;;;;;;25.08;42.02;98858.56;6126883;23;20152;-91
2022/08/09 04:38:07;;;;;;;2.27;1.30;;;;;;;25.14;41.96;98853.28;6127023;23;20135;-92
2022/08/09 04:40:49;;;;;;;3.93;1.50;;;;;;;25.36;41.25;98857.81;6126660;23;20152;-90
2022/08/09 04:43:17;;;;;;;4.40;1.73;;;;;;;25.58;41.49;98866.88;6127637;23;20136;-90
2022/08/09 04:45:43;;;;;;;3.53;1.57;;;;;;;25.59;41.04;98855.13;6126396;23;20195;-90
2022/08/09 04:48:11;;;;;;;4.07;1.43;;;;;;;25.63;41.27;98865.31;6101272;23;20213;-91
2022/08/09 04:50:36;;;;;;;6.80;1.67;;;;;;;25.82;40.69;98863.09;6126917;23;20162;-90
2022/08/09 04:53:07;;;;;;;2.53;1.20;;;;;;;25.69;40.84;98863.75;6126933;23;20176;-91
2022/08/09 04:55:35;;;;;;;6.03;1.90;;;;;;;25.85;41.02;98865.44;6127491;23;20132;-92
2022/08/09 04:58:04;;;;;;;7.03;2.20;;;;;;;25.86;41.27;98867.94;6126517;23;20218;-91
2022/08/09 05:00:41;;;;;;;7.00;2.10;;;;;;;26.02;40.97;98870.44;6126512;23;20152;-92
2022/08/09 05:03:08;;;;;;;4.27;2.00;;;;;;;26.04;41.03;98878.31;6126620;23;20155;-91
2022/08/09 05:05:34;;;;;;;6.73;2.40;;;;;;;26.14;41.13;98877.06;6126767;23;20176;-90
2022/08/09 05:08:01;;;;;;;4.97;1.77;;;;;;;26.20;40.97;98878.97;6100792;23;20179;-92
2022/08/09 05:10:34;;;;;;;4.13;2.23;;;;;;;26.40;40.43;98878.41;6126484;23;20147;-93
2022/08/09 05:13:00;;;;;;;3.50;1.80;;;;;;;26.51;40.12;98865.34;6126515;23;20148;-90
2022/08/09 05:15:27;;;;;;;3.60;1.73;;;;;;;26.62;40.22;98869.41;6127011;23;20210;-90
2022/08/09 05:17:53;;;;;;;4.37;2.00;;;;;;;26.80;39.78;98872.53;6100780;23;20156;-91
2022/08/09 05:20:20;;;;;;;3.90;2.00;;;;;;;26.78;39.39;98871.91;6101124;23;20167;-90
2022/08/09 05:22:49;;;;;;;4.83;1.73;;;;;;;26.98;39.40;98877.50;6102346;23;20156;-90
2022/08/09 05:25:15;;;;;;;3.80;1.73;;;;;;;27.15;39.07;98873.53;6126337;23;20171;-91
2022/08/09 05:27:41;;;;;;;3.65;1.80;;;;;;;27.06;38.82;98883.59;6100950;23;20175;-90
2022/08/09 05:30:08;;;;;;;6.05;2.40;;;;;;;27.28;38.60;98885.25;6126610;23;20231;-92
2022/08/09 05:32:33;;;;;;;4.63;2.10;;;;;;;27.45;38.49;98888.53;6100803;23;20542;-90
2022/08/09 05:34:59;;;;;;;8.40;2.53;;;;;;;27.59;37.68;98881.41;6101189;23;20636;-91
2022/08/09 05:37:28;;;;;;;7.13;2.67;;;;;;;27.56;37.93;98887.19;6127277;23;20147;-92
2022/08/09 05:39:54;;;;;;;4.60;2.30;;;;;;;27.70;37.89;98891.66;6128617;23;20230;-92
2022/08/09 05:42:21;;;;;;;7.80;3.05;;;;;;;27.85;37.81;98884.31;6102846;23;20156;-89
2022/08/09 05:44:46;;;;;;;5.57;2.95;;;;;;;27.92;37.77;98886.00;6102576;23;20156;-89
2022/08/09 05:47:13;;;;;;;9.73;2.95;;;;;;;27.95;37.11;98877.53;6127929;23;20199;-89
2022/08/09 05:49:39;;;;;;;6.55;2.92;;;;;;;27.98;37.01;98892.47;6128495;23;20618;-89
2022/08/09 05:52:07;;;;;;;5.55;2.95;;;;;;;27.98;37.40;98877.16;6102658;23;20156;-89
2022/08/09 05:54:34;;;;;;;10.27;2.25;;;;;;;28.01;37.20;98881.31;6128736;23;20221;-88
2022/08/09 05:57:00;;;;;;;5.35;2.45;;;;;;;28.10;36.69;98872.06;6102585;23;20148;-88
2022/08/09 05:59:27;;;;;;;7.45;2.60;;;;;;;28.17;37.23;98867.53;6126892;23;20238;-88
2022/08/09 06:01:54;;;;;;;6.07;2.75;;;;;;;28.42;36.77;98873.25;6128702;23;20152;-88
2022/08/09 06:04:20;;;;;;;4.80;2.83;;;;;;;28.59;36.56;98875.41;6128342;23;20579;-87
2022/08/09 06:06:45;;;;;;;7.30;2.90;;;;;;;28.72;36.28;98877.34;6127879;23;20176;-88
2022/08/09 06:09:11;;;;;;;4.43;2.30;;;;;;;28.78;36.31;98871.16;6127935;23;20590;-88
2022/08/09 06:11:37;;;;;;;5.35;2.28;;;;;;;28.72;35.27;98873.84;6128236;23;20175;-90
2022/08/09 06:14:04;;;;;;;8.43;2.72;;;;;;;28.87;35.79;98877.19;6102694;23;20160;-88
2022/08/09 06:16:31;;;;;;;4.43;2.45;;;;;;;28.94;35.31;98883.44;6127858;23;20148;-89
2022/08/09 06:18:58;;;;;;;6.28;2.58;;;;;;;29.10;35.57;98883.91;6127859;23;20148;-88
2022/08/09 06:21:25;;;;;;;3.30;1.90;;;;;;;29.43;34.60;98881.25;6128473;23;20583;-89
2022/08/09 06:23:51;;;;;;;5.50;2.28;;;;;;;29.61;33.99;98884.16;6126703;23;20258;-89
2022/08/09 06:26:19;;;;;;;4.47;2.22;;;;;;;29.55;34.19;98885.03;6127691;23;20580;-89
2022/08/09 06:28:46;;;;;;;7.03;2.97;;;;;;;29.63;34.02;98892.09;6102137;23;20642;-89
2022/08/09 06:31:13;;;;;;;6.15;2.47;;;;;;;29.97;33.41;98885.66;6127543;23;20226;-89
2022/08/09 06:33:40;;;;;;;5.35;2.53;;;;;;;30.12;32.55;98887.06;6127709;23;20156;-90
2022/08/09 06:36:07;;;;;;;5.53;2.42;;;;;;;30.19;32.86;98878.97;6127693;23;20147;-89
2022/08/09 06:38:34;;;;;;;5.80;2.85;;;;;;;30.29;32.32;98873.94;6127622;23;20230;-89
2022/08/09 06:41:01;;;;;;;11.20;2.88;;;;;;;30.21;32.50;98880.41;6128025;23;20156;-89
2022/08/09 06:43:28;;;;;;;6.53;3.08;;;;;;;30.29;32.99;98879.34;6127909;23;20152;-89
2022/08/09 06:45:53;;;;;;;4.82;2.88;;;;;;;30.33;33.18;98878.69;6127119;23;20588;-89
2022/08/09 06:48:20;;;;;;;9.23;3.10;;;;;;;30.72;32.51;98874.19;6127336;23;20196;-89
2022/08/09 06:50:47;;;;;;;8.75;2.47;;;;;;;31.18;30.92;98879.41;6127332;23;20158;-89
2022/08/09 06:53:14;;;;;;;6.38;2.45;;;;;;;31.51;30.31;98877.28;6102001;23;20178;-92
2022/08/09 06:55:39;;;;;;;5.57;2.55;;;;;;;31.63;29.66;98875.50;6101917;23;20234;-90
2022/08/09 06:58:06;;;;;;;4.88;2.35;;;;;;;31.78;29.49;98880.63;6127793;23;20190;-88
2022/08/09 07:00:36;;;;;;;4.57;1.42;;;;;;;31.68;29.41;98875.72;6101849;23;20175;-92
2022/08/09 07:03:04;;;;;;;8.90;2.50;;;;;;;31.83;29.26;98870.75;6127845;23;20156;-89
2022/08/09 07:05:31;;;;;;;6.90;2.17;;;;;;;32.03;29.63;98879.56;6127748;23;20172;-89
2022/08/09 07:07:58;;;;;;;4.93;2.05;;;;;;;32.28;29.23;98871.38;6127273;23;20172;-89
2022/08/09 07:10:25;;;;;;;6.95;2.17;;;;;;;32.66;28.77;98868.44;6128014;23;20179;-90
2022/08/09 07:12:50;;;;;;;4.35;2.15;;;;;;;32.94;28.81;98867.84;6127974;23;20159;-89
2022/08/09 07:15:16;;;;;;;4.43;1.98;;;;;;;33.11;28.29;98867.00;6127435;23;20152;-89
2022/08/09 07:17:41;;;;;;;4.95;1.85;;;;;;;32.99;27.89;98860.69;6127915;23;20152;-89
2022/08/09 07:20:08;;;;;;;7.70;1.98;;;;;;;33.16;27.86;98864.41;6101667;23;20163;-89
2022/08/09 07:22:34;;;;;;;3.08;1.38;;;;;;;33.47;27.83;98859.75;6101280;23;20631;-89
2022/08/09 07:24:59;;;;;;;2.72;1.80;;;;;;;33.60;27.80;98854.13;6100602;23;20184;-89
2022/08/09 07:27:26;;;;;;;3.58;1.60;;;;;;;33.73;27.12;98852.00;6125640;23;20548;-89
2022/08/09 07:29:52;;;;;;;4.88;1.67;;;;;;;33.84;27.34;98850.34;6126082;23;20328;-90
2022/08/09 07:32:17;;;;;;;3.90;1.65;;;;;;;34.09;26.79;98861.84;6100082;23;20247;-90
2022/08/09 07:34:43;;;;;;;2.42;1.20;;;;;;;34.33;27.19;98860.72;6100225;23;20187;-89
2022/08/09 07:37:09;;;;;;;6.18;1.20;;;;;;;34.36;24.83;98854.81;6100019;23;20155;-90
2022/08/09 07:39:34;;;;;;;6.38;1.60;;;;;;;34.45;26.03;98860.72;6127041;23;20174;-90
2022/08/09 07:42:01;;;;;;;2.53;1.08;;;;;;;34.61;26.90;98861.88;6127740;23;20230;-89
2022/08/09 07:44:26;;;;;;;4.15;1.45;;;;;;;34.78;25.82;98860.88;6127155;23;20174;-91
2022/08/09 07:46:52;;;;;;;2.65;1.00;;;;;;;35.02;27.30;98864.31;6126878;23;20627;-90
2022/08/09 07:49:17;;;;;;;3.35;1.20;;;;;;;35.39;26.14;98870.19;6127025;23;20230;-90
2022/08/09 07:51:43;;;;;;;3.50;1.50;;;;;;;35.49;23.86;98873.09;6126967;23;20591;-90
2022/08/09 07:54:08;;;;;;;3.25;1.40;;;;;;;35.44;25.51;98873.84;6101591;23;20159;-90
2022/08/09 07:56:36;;;;;;;3.03;1.30;;;;;;;35.71;25.07;98879.50;6101440;23;20152;-90
2022/08/09 07:59:02;;;;;;;3.75;2.22;;;;;;;35.85;24.71;98871.81;6101426;23;20199;-89
2022/08/09 08:01:27;;;;;;;4.88;2.15;;;;;;;35.85;24.52;98869.09;6127054;23;20156;-90
2022/08/09 08:03:52;;;;;;;3.05;1.25;;;;;;;35.91;25.30;98863.44;6126858;23;20152;-90
2022/08/09 08:06:19;;;;;;;5.10;1.73;;;;;;;35.87;23.72;98862.31;6124786;23;20154;-89
2022/08/09 08:08:46;;;;;;;3.20;1.33;;;;;;;35.87;24.99;98856.00;6126070;23;20148;-90
2022/08/09 08:11:12;;;;;;;2.67;1.23;;;;;;;36.15;23.83;98856.72;6126216;23;20171;-89
2022/08/09 08:13:39;;;;;;;3.70;1.27;;;;;;;36.48;23.95;98846.78;6125554;23;20175;-89
2022/08/09 08:16:06;;;;;;;3.75;1.45;;;;;;;36.79;23.93;98846.88;6126606;23;20148;-90
2022/08/09 08:18:38;;;;;;;1.98;0.82;;;;;;;36.80;22.57;98848.56;6100837;23;20156;-92
2022/08/09 08:21:04;;;;;;;2.47;1.05;;;;;;;36.63;22.48;98844.25;6101130;23;20243;-89
2022/08/09 08:23:29;;;;;;;2.38;0.88;;;;;;;36.90;23.04;98834.16;6125988;23;20242;-90
2022/08/09 08:25:55;;;;;;;2.42;1.00;;;;;;;37.07;22.82;98845.03;6126559;23;20148;-89
2022/08/09 08:28:21;;;;;;;4.28;1.88;;;;;;;37.04;21.88;98840.06;6126866;23;20554;-90
2022/08/09 08:30:46;;;;;;;1.77;0.73;;;;;;;37.10;22.11;98844.53;6101118;23;20219;-89
2022/08/09 08:33:12;;;;;;;2.25;1.02;;;;;;;37.35;21.85;98834.63;6127256;23;20191;-89
2022/08/09 08:35:37;;;;;;;1.85;0.98;;;;;;;36.97;23.36;98828.53;6126600;23;20148;-90
2022/08/09 08:38:03;;;;;;;3.70;1.15;;;;;;;37.22;22.86;98836.97;6101084;23;20166;-90
2022/08/09 08:40:29;;;;;;;4.10;1.23;;;;;;;37.43;22.57;98836.94;6126444;23;20631;-90
2022/08/09 08:42:55;;;;;;;3.38;1.33;;;;;;;37.41;22.38;98830.06;6126512;23;20152;-92
2022/08/09 08:45:28;;;;;;;5.97;1.58;;;;;;;37.33;22.42;98831.34;6100816;23;20218;-90
2022/08/09 08:47:53;;;;;;;3.40;1.17;;;;;;;37.57;23.40;98818.16;6126449;23;20172;-90
2022/08/09 08:50:19;;;;;;;2.08;0.90;;;;;;;37.79;22.75;98815.31;6126577;23;20580;-89
2022/08/09 08:52:47;;;;;;;3.80;1.30;;;;;;;37.90;22.02;98815.13;6126424;23;20565;-90
2022/08/09 08:55:17;;;;;;;2.35;0.95;;;;;;;37.97;21.68;98818.44;6126379;23;20176;-90
2022/08/09 08:57:44;;;;;;;3.13;0.90;;;;;;;37.93;21.36;98828.28;6126787;23;20230;-89
2022/08/09 09:00:11;;;;;;;2.20;0.93;;;;;;;37.79;21.50;98815.31;6098672;23;20155;-90
2022/08/09 09:02:38;;;;;;;2.10;1.08;;;;;;;37.89;21.70;98821.72;6100696;23;20155;-90
2022/08/09 09:05:07;;;;;;;1.92;0.80;;;;;;;38.02;21.27;98812.19;6101033;23;20471;-89
2022/08/09 09:07:34;;;;;;;2.97;0.93;;;;;;;38.17;20.91;98825.94;6100788;23;20281;-90
2022/08/09 09:10:07;;;;;;;2.28;0.90;;;;;;;38.35;20.25;98811.00;6100620;23;20515;-90
2022/08/09 09:12:35;;;;;;;1.35;0.60;;;;;;;38.34;20.39;98809.38;6126051;23;20136;-90
2022/08/09 09:15:03;;;;;;;3.75;0.98;;;;;;;38.25;21.40;98795.31;6126528;23;20148;-89
2022/08/09 09:17:30;;;;;;;1.65;0.80;;;;;;;38.26;21.30;98785.19;6125864;23;20143;-90
2022/08/09 09:19:57;;;;;;;1.63;0.88;;;;;;;38.03;20.47;98813.81;6126148;23;20155;-90
2022/08/09 09:22:24;;;;;;;3.30;0.77;;;;;;;37.84;20.33;98796.19;6126157;23;20574;-90
2022/08/09 09:24:55;;;;;;;2.70;0.70;;;;;;;37.85;20.29;98793.16;6126048;23;20148;-89
2022/08/09 09:27:26;;;;;;;1.77;0.65;;;;;;;37.71;19.98;98794.72;6126007;23;20171;-91
2022/08/09 09:29:53;;;;;;;2.88;1.00;;;;;;;37.84;20.47;98785.25;6126981;23;20167;-90
2022/08/09 09:32:30;;;;;;;1.48;0.90;;;;;;;38.09;20.50;98777.19;6126175;23;20700;-91
2022/08/09 09:35:14;;;;;;;2.80;1.20;;;;;;;38.25;20.39;98765.22;6126133;23;20132;-90
2022/08/09 09:37:41;;;;;;;2.47;0.70;;;;;;;38.21;20.46;98769.56;6100598;23;20144;-91
2022/08/09 09:40:09;;;;;;;6.00;1.30;;;;;;;38.20;19.59;98784.34;6126000;23;20152;-90
2022/08/09 09:42:36;;;;;;;5.68;1.02;;;;;;;38.13;19.53;98765.41;6126061;23;20235;-88
2022/08/09 09:45:08;;;;;;;2.10;0.90;;;;;;;38.37;19.78;98767.72;6125780;23;20203;-88
2022/08/09 09:47:35;;;;;;;3.15;1.00;;;;;;;37.84;20.60;98775.09;6100800;23;20187;-88
2022/08/09 09:50:02;;;;;;;1.50;0.80;;;;;;;37.77;20.92;98773.69;6100792;23;20234;-90
2022/08/09 09:52:29;;;;;;;2.78;0.80;;;;;;;37.66;20.10;98778.28;6100496;23;20160;-89
2022/08/09 09:55:10;;;;;;;2.30;1.38;;;;;;;38.00;20.11;98763.16;6100496;23;20467;-88
2022/08/09 09:57:37;;;;;;;1.38;0.82;;;;;;;38.26;20.73;98771.50;6125882;23;20539;-89
2022/08/09 10:00:23;;;;;;;2.20;1.00;;;;;;;38.48;20.37;98772.97;6126122;23;20163;-89
2022/08/09 10:02:50;;;;;;;4.07;0.80;;;;;;;37.95;18.28;98770.53;6100680;23;20159;-92
2022/08/09 10:05:16;;;;;;;2.10;0.88;;;;;;;37.63;17.92;98767.88;6125826;23;20239;-91
2022/08/09 10:07:43;;;;;;;0.47;0.30;;;;;;;37.41;18.61;98769.91;6125788;23;20702;-91
2022/08/09 10:10:10;;;;;;;1.65;0.85;;;;;;;37.67;18.43;98763.50;6125925;23;20171;-92
2022/08/09 10:12:38;;;;;;;1.67;0.50;;;;;;;37.77;17.92;98785.47;6100573;23;20191;-91
2022/08/09 10:15:16;;;;;;;0.70;0.40;;;;;;;38.11;17.81;98766.78;6126257;23;20239;-91
2022/08/09 10:17:45;;;;;;;1.77;0.70;;;;;;;38.47;18.22;98767.78;6125787;23;20142;-91
2022/08/09 10:20:19;;;;;;;2.33;0.55;;;;;;;38.78;18.85;98776.91;6100318;23;20167;-91
2022/08/09 10:22:47;;;;;;;3.63;1.05;;;;;;;38.81;19.02;98765.41;6126524;23;20148;-91
2022/08/09 10:25:13;;;;;;;1.17;0.50;;;;;;;38.73;17.94;98777.72;6102296;23;20246;-91
2022/08/09 10:27:40;;;;;;;1.17;0.40;;;;;;;38.67;17.87;98776.03;6102165;23;20211;-92
2022/08/09 10:30:07;;;;;;;1.45;0.47;;;;;;;38.60;18.32;98772.75;6127785;23;20152;-91
2022/08/09 10:32:35;;;;;;;1.92;0.70;;;;;;;38.67;17.48;98759.59;6128686;23;20151;-90
2022/08/09 10:35:02;;;;;;;1.23;0.52;;;;;;;38.53;18.48;98758.47;6102262;23;20151;-92
2022/08/09 10:37:28;;;;;;;1.55;0.50;;;;;;;38.72;18.63;98767.81;6128684;23;20155;-92
2022/08/09 10:39:55;;;;;;;1.55;0.60;;;;;;;38.99;18.03;98764.88;6101149;23;20498;-92
2022/08/09 10:42:31;;;;;;;1.98;0.60;;;;;;;39.49;17.98;98758.59;6127886;23;20572;-90
2022/08/09 10:45:07;;;;;;;1.17;0.70;;;;;;;39.16;17.60;98766.25;6126360;23;20155;-91
2022/08/09 10:48:10;;;;;;;0.85;0.40;;;;;;;39.13;19.20;98766.78;6127921;23;20175;-91
2022/08/09 10:51:13;;;;;;;1.55;0.77;;;;;;;39.09;17.99;98768.44;6088971;23;20539;-91
2022/08/09 10:54:01;;;;;;;1.58;0.47;;;;;;;38.71;19.18;98757.94;6102158;23;20171;-91
2022/08/09 10:56:33;;;;;;;1.63;0.60;;;;;;;38.69;18.91;98755.50;6127964;23;20136;-89
2022/08/09 10:59:28;;;;;;;1.83;0.55;;;;;;;38.78;18.41;98753.09;6126441;23;20163;-89
2022/08/09 11:01:54;;;;;;;3.08;0.80;;;;;;;39.21;18.19;98749.81;6127781;23;20140;-89
2022/08/09 11:04:28;;;;;;;3.83;0.77;;;;;;;39.35;17.55;98744.59;6127878;23;20230;-88
2022/08/09 11:07:02;;;;;;;0.73;0.40;;;;;;;39.65;18.42;98746.53;6128016;23;20202;-89
2022/08/09 11:09:43;;;;;;;2.70;0.50;;;;;;;39.06;17.87;98754.47;6100789;23;20327;-89
2022/08/09 11:12:15;;;;;;;2.97;0.70;;;;;;;38.98;18.25;98742.13;6126036;23;20219;-88
2022/08/09 11:14:55;;;;;;;2.28;0.90;;;;;;;39.60;17.16;98738.28;6127807;23;20611;-90
2022/08/09 11:17:20;;;;;;;2.05;0.60;;;;;;;39.68;18.01;98740.44;6126218;23;20489;-88
2022/08/09 11:19:49;;;;;;;3.95;0.93;;;;;;;39.31;18.05;98736.09;6127319;23;20183;-89
2022/08/09 11:22:16;;;;;;;0.73;0.60;;;;;;;39.29;18.03;98732.81;6127728;23;20155;-89
2022/08/09 11:25:12;;;;;;;3.42;1.95;;;;;;;39.26;18.28;98747.06;6101775;23;20175;-89
2022/08/09 11:27:40;;;;;;;1.88;0.80;;;;;;;38.81;18.42;98741.59;6127811;23;20178;-89
2022/08/09 11:30:18;;;;;;;3.47;0.50;;;;;;;38.99;18.56;98743.78;6127179;23;20528;-90
2022/08/09 11:33:11;;;;;;;0.98;0.60;;;;;;;39.22;18.30;98732.28;6101703;23;20226;-90
2022/08/09 11:35:43;;;;;;;5.20;1.75;;;;;;;39.07;18.03;98724.03;6124403;23;20226;-89
2022/08/09 11:38:25;;;;;;;2.10;0.68;;;;;;;38.85;18.29;98734.44;6126738;23;20179;-88
2022/08/09 11:40:51;;;;;;;1.90;0.68;;;;;;;38.29;18.64;98732.66;6127177;23;20151;-88
2022/08/09 11:43:38;;;;;;;0.70;0.38;;;;;;;37.97;19.29;98727.31;6126873;23;20475;-88
2022/08/09 11:46:05;;;;;;;1.73;0.60;;;;;;;38.41;19.06;98711.34;6114390;23;20171;-89
2022/08/09 11:48:33;;;;;;;1.13;0.55;;;;;;;38.46;18.39;98712.16;6101379;23;20504;-89